Caldas1b

Aéroports (rapport METAR)


LPPT - Lisboa
Distance de la station: SSE 78km
Mise à jour: 02/03/2024 09:30
Pluie légère, Nuageux
Pluie légère, Nuageux
 Vent du OSO
Vent: OSO 24 km/h, Rafale: 44 km/h
Température: 13°C
Point de rosée: 10°C
Humidité: 82%
Baromètre: 1013 hPa
Résumé: Nearby Showers
Nuages: Nuageux
Visibilité: 10 km
Nébulosité: Quelques nuages 305 m
Part. nuageux 762 m
Nuageux 914 m
2024/03/02 09:30 LPPT 020930Z 25013G24KT 9999 VCSH FEW010 SCT025 BKN030 13/10 Q1013
LPPR - Porto
Distance de la station: NO 205km
Mise à jour: 02/03/2024 09:30
Pluie légère, Quelques nuages
Pluie légère, Quelques nuages
 Vent du OSO
Vent: OSO 24 km/h, Rafale: 56 km/h
Température: 13°C
Point de rosée: 11°C
Humidité: 88%
Baromètre: 1005 hPa
Résumé: Pluie légère
Nuages: Quelques nuages
Visibilité: 8 km
Nébulosité: Quelques nuages 274 m
Nuageux 366 m
Quelques nuages 610 m
2024/03/02 09:30 LPPR 020930Z 25013G30KT 220V290 8000 SHRA FEW009 BKN012 FEW020CB 13/11 Q1005
 
LPFR - Faro
Distance de la station: SE 286km
Mise à jour: 02/03/2024 09:30
Quelques nuages
Quelques nuages
 Vent du OSO
Vent: OSO 11 km/h
Température: 14°C
Point de rosée: 11°C
Humidité: 82%
Baromètre: 1017 hPa
Nuages: Quelques nuages
Visibilité: 10 km
Nébulosité: Quelques nuages 549 m
2024/03/02 09:30 LPFR 020930Z 25006KT 9999 FEW018 14/11 Q1017
LPBJ - Beja
Distance de la station: ESE 190km
Mise à jour: 02/03/2024 09:00
Nuageux
Nuageux
 Vent du O
Vent: O 19 km/h
Température: 10°C
Wind Chill: 7°C
Point de rosée: 9°C
Humidité: 94%
Baromètre: 1015 hPa
Nuages: Nuageux
Visibilité: 10 km
Nébulosité: Quelques nuages 366 m
Nuageux 1219 m
2024/03/02 09:00 LPBJ 020900Z 26010KT 9999 FEW012 BKN040 10/09 Q1015
 
LPMA - Funchal
Distance de la station: SSO 1025km
Mise à jour: 02/03/2024 09:30
Part. nuageux
Part. nuageux
 Vent du N
Vent: N 20 km/h
Température: 17°C
Point de rosée: 10°C
Humidité: 64%
Baromètre: 1024 hPa
Nuages: Part. nuageux
Visibilité: 10 km
Nébulosité: Part. nuageux 457 m
Part. nuageux 914 m
2024/03/02 09:30 LPMA 020930Z 36011KT 310V050 9999 SCT015 SCT030 17/10 Q1024 RERA
LPPD - Ponta Delgada
Distance de la station: O 1450km
Mise à jour: 02/03/2024 09:30
Nuageux
Nuageux
 Vent du NNO
Vent: NNO 7 km/h
Nuages: Nuageux
Visibilité: 10 km
Nébulosité: Quelques nuages 610 m
Nuageux 1006 m
2024/03/02 09:30 LPPD 020930Z 33004KT 290V030 9999 FEW020 BKN033 14/0
 
LPCS - Cascais
Distance de la station: SSO 77km
Mise à jour: 02/03/2024 09:30
Nuageux
Nuageux
 Vent du O
Vent: O 26 km/h, Rafale: 44 km/h
Température: 14°C
Point de rosée: 9°C
Humidité: 72%
Baromètre: 1014 hPa
Nuages: Nuageux
Visibilité: 10 km
Nébulosité: Quelques nuages 671 m
Nuageux 823 m
2024/03/02 09:30 LPCS 020930Z 27014G24KT 240V300 9999 FEW022 BKN027 14/09 Q1014
LPMR - Monte Real
Distance de la station: N 55km
Mise à jour: 02/03/2024 09:00
Nuageux
Nuageux
 Vent du O
Vent: O 19 km/h
Température: 13°C
Point de rosée: 11°C
Humidité: 88%
Baromètre: 1011 hPa
Nuages: Nuageux
Visibilité: 10 km
Nébulosité: Nuageux 732 m
2024/03/02 09:00 LPMR 020900Z 27010KT 220V290 9999 BKN024 13/11 Q1011

Phoenix Radar Flight Tracking

Map courtesy of flightradar24.com